sensor_id;sensor_type;location;lat;lon;timestamp;P1;durP1;ratioP1;P2;durP2;ratioP2
37851;SDS011;23691;52.486;4.650;2022-10-16T00:01:51;9.68;;;1.23;;
37851;SDS011;23691;52.486;4.650;2022-10-16T00:04:51;6.60;;;1.20;;
37851;SDS011;23691;52.486;4.650;2022-10-16T00:08:02;14.10;;;1.50;;
37851;SDS011;23691;52.486;4.650;2022-10-16T00:11:15;6.75;;;1.15;;
37851;SDS011;23691;52.486;4.650;2022-10-16T01:51:50;9.63;;;1.40;;
37851;SDS011;23691;52.486;4.650;2022-10-16T01:54:19;8.50;;;1.20;;
37851;SDS011;23691;52.486;4.650;2022-10-16T01:56:52;11.77;;;1.17;;
37851;SDS011;23691;52.486;4.650;2022-10-16T02:52:00;7.43;;;1.25;;
37851;SDS011;23691;52.486;4.650;2022-10-16T02:54:26;8.63;;;1.15;;
37851;SDS011;23691;52.486;4.650;2022-10-16T02:56:51;10.38;;;1.30;;
37851;SDS011;23691;52.486;4.650;2022-10-16T02:59:18;7.50;;;1.00;;
37851;SDS011;23691;52.486;4.650;2022-10-16T03:01:44;10.27;;;1.80;;
37851;SDS011;23691;52.486;4.650;2022-10-16T03:04:10;4.95;;;1.00;;
37851;SDS011;23691;52.486;4.650;2022-10-16T03:06:37;7.55;;;1.27;;
37851;SDS011;23691;52.486;4.650;2022-10-16T03:11:32;9.05;;;1.48;;
37851;SDS011;23691;52.486;4.650;2022-10-16T03:13:57;5.82;;;1.20;;
37851;SDS011;23691;52.486;4.650;2022-10-16T03:16:23;8.63;;;1.40;;
37851;SDS011;23691;52.486;4.650;2022-10-16T03:22:32;6.75;;;1.17;;
37851;SDS011;23691;52.486;4.650;2022-10-16T03:25:19;6.47;;;1.23;;
37851;SDS011;23691;52.486;4.650;2022-10-16T03:28:51;6.50;;;1.02;;
37851;SDS011;23691;52.486;4.650;2022-10-16T03:31:18;6.18;;;1.15;;
37851;SDS011;23691;52.486;4.650;2022-10-16T03:33:43;6.18;;;1.25;;
37851;SDS011;23691;52.486;4.650;2022-10-16T03:36:09;9.25;;;1.50;;
37851;SDS011;23691;52.486;4.650;2022-10-16T03:38:35;9.48;;;1.50;;
37851;SDS011;23691;52.486;4.650;2022-10-16T03:41:00;7.35;;;1.48;;
37851;SDS011;23691;52.486;4.650;2022-10-16T03:43:26;11.25;;;1.63;;
37851;SDS011;23691;52.486;4.650;2022-10-16T03:45:51;9.38;;;1.50;;
37851;SDS011;23691;52.486;4.650;2022-10-16T03:48:17;11.65;;;1.77;;
37851;SDS011;23691;52.486;4.650;2022-10-16T03:50:43;10.85;;;1.73;;
37851;SDS011;23691;52.486;4.650;2022-10-16T03:53:09;13.00;;;1.50;;
37851;SDS011;23691;52.486;4.650;2022-10-16T03:55:34;7.65;;;1.30;;
37851;SDS011;23691;52.486;4.650;2022-10-16T03:58:00;9.45;;;1.40;;
37851;SDS011;23691;52.486;4.650;2022-10-16T04:00:26;10.75;;;1.50;;
37851;SDS011;23691;52.486;4.650;2022-10-16T04:02:52;10.30;;;1.85;;
37851;SDS011;23691;52.486;4.650;2022-10-16T04:05:17;12.23;;;1.88;;
37851;SDS011;23691;52.486;4.650;2022-10-16T04:07:43;9.63;;;1.38;;
37851;SDS011;23691;52.486;4.650;2022-10-16T04:10:08;12.05;;;1.70;;
37851;SDS011;23691;52.486;4.650;2022-10-16T04:12:34;12.80;;;2.20;;
37851;SDS011;23691;52.486;4.650;2022-10-16T04:14:59;10.40;;;1.98;;
37851;SDS011;23691;52.486;4.650;2022-10-16T04:17:25;11.88;;;2.10;;
37851;SDS011;23691;52.486;4.650;2022-10-16T04:19:50;10.73;;;1.90;;
37851;SDS011;23691;52.486;4.650;2022-10-16T04:22:16;14.95;;;2.42;;
37851;SDS011;23691;52.486;4.650;2022-10-16T04:24:41;16.58;;;2.83;;
37851;SDS011;23691;52.486;4.650;2022-10-16T04:27:06;15.73;;;2.45;;
37851;SDS011;23691;52.486;4.650;2022-10-16T04:29:32;17.35;;;2.47;;
37851;SDS011;23691;52.486;4.650;2022-10-16T04:31:57;12.80;;;1.75;;
37851;SDS011;23691;52.486;4.650;2022-10-16T04:34:23;14.43;;;1.90;;
37851;SDS011;23691;52.486;4.650;2022-10-16T04:36:51;11.15;;;1.73;;
37851;SDS011;23691;52.486;4.650;2022-10-16T04:39:19;13.27;;;1.98;;
37851;SDS011;23691;52.486;4.650;2022-10-16T04:41:45;19.88;;;2.38;;
37851;SDS011;23691;52.486;4.650;2022-10-16T04:44:11;11.65;;;1.60;;
37851;SDS011;23691;52.486;4.650;2022-10-16T04:46:36;15.80;;;2.05;;
37851;SDS011;23691;52.486;4.650;2022-10-16T04:49:02;18.73;;;2.70;;
37851;SDS011;23691;52.486;4.650;2022-10-16T04:51:27;22.30;;;2.50;;
37851;SDS011;23691;52.486;4.650;2022-10-16T04:53:53;20.25;;;2.63;;
37851;SDS011;23691;52.486;4.650;2022-10-16T04:56:20;18.60;;;2.38;;
37851;SDS011;23691;52.486;4.650;2022-10-16T04:58:46;15.82;;;2.60;;
37851;SDS011;23691;52.486;4.650;2022-10-16T05:01:12;16.80;;;2.53;;
37851;SDS011;23691;52.486;4.650;2022-10-16T05:03:38;25.15;;;3.20;;
37851;SDS011;23691;52.486;4.650;2022-10-16T05:06:04;17.95;;;2.55;;
37851;SDS011;23691;52.486;4.650;2022-10-16T05:08:31;15.38;;;2.53;;
37851;SDS011;23691;52.486;4.650;2022-10-16T05:10:56;19.00;;;2.50;;
37851;SDS011;23691;52.486;4.650;2022-10-16T05:13:22;17.77;;;2.60;;
37851;SDS011;23691;52.486;4.650;2022-10-16T05:15:49;16.45;;;2.28;;
37851;SDS011;23691;52.486;4.650;2022-10-16T05:18:15;16.67;;;2.10;;
37851;SDS011;23691;52.486;4.650;2022-10-16T05:20:41;17.35;;;2.50;;
37851;SDS011;23691;52.486;4.650;2022-10-16T05:23:07;17.73;;;2.20;;
37851;SDS011;23691;52.486;4.650;2022-10-16T05:25:32;18.02;;;2.25;;
37851;SDS011;23691;52.486;4.650;2022-10-16T05:27:59;12.02;;;1.90;;
37851;SDS011;23691;52.486;4.650;2022-10-16T05:30:25;9.30;;;1.63;;
37851;SDS011;23691;52.486;4.650;2022-10-16T05:32:51;13.57;;;1.90;;
37851;SDS011;23691;52.486;4.650;2022-10-16T05:35:16;10.75;;;1.60;;
37851;SDS011;23691;52.486;4.650;2022-10-16T05:37:43;14.00;;;2.22;;
37851;SDS011;23691;52.486;4.650;2022-10-16T05:40:09;10.32;;;1.80;;
37851;SDS011;23691;52.486;4.650;2022-10-16T05:42:34;13.02;;;1.63;;
37851;SDS011;23691;52.486;4.650;2022-10-16T05:45:00;11.43;;;1.45;;
37851;SDS011;23691;52.486;4.650;2022-10-16T05:47:30;11.98;;;1.58;;
37851;SDS011;23691;52.486;4.650;2022-10-16T05:49:56;9.88;;;1.45;;
37851;SDS011;23691;52.486;4.650;2022-10-16T05:52:21;15.73;;;1.73;;
37851;SDS011;23691;52.486;4.650;2022-10-16T05:54:47;9.90;;;1.73;;
37851;SDS011;23691;52.486;4.650;2022-10-16T05:57:13;12.85;;;1.70;;
37851;SDS011;23691;52.486;4.650;2022-10-16T05:59:39;10.25;;;1.80;;
37851;SDS011;23691;52.486;4.650;2022-10-16T06:02:05;12.43;;;2.13;;
37851;SDS011;23691;52.486;4.650;2022-10-16T06:04:30;10.57;;;1.60;;
37851;SDS011;23691;52.486;4.650;2022-10-16T06:06:57;14.18;;;2.00;;
37851;SDS011;23691;52.486;4.650;2022-10-16T06:09:25;14.50;;;1.85;;
37851;SDS011;23691;52.486;4.650;2022-10-16T06:11:51;14.43;;;2.00;;
37851;SDS011;23691;52.486;4.650;2022-10-16T06:14:16;14.10;;;2.10;;
37851;SDS011;23691;52.486;4.650;2022-10-16T06:16:42;13.80;;;2.00;;
37851;SDS011;23691;52.486;4.650;2022-10-16T06:19:07;12.75;;;1.65;;
37851;SDS011;23691;52.486;4.650;2022-10-16T06:21:34;10.23;;;1.50;;
37851;SDS011;23691;52.486;4.650;2022-10-16T06:24:00;11.43;;;1.80;;
37851;SDS011;23691;52.486;4.650;2022-10-16T06:26:26;11.25;;;1.67;;
37851;SDS011;23691;52.486;4.650;2022-10-16T06:28:54;12.30;;;1.60;;
37851;SDS011;23691;52.486;4.650;2022-10-16T06:31:21;10.25;;;1.70;;
37851;SDS011;23691;52.486;4.650;2022-10-16T06:33:50;16.45;;;1.95;;
37851;SDS011;23691;52.486;4.650;2022-10-16T06:36:16;10.13;;;1.75;;
37851;SDS011;23691;52.486;4.650;2022-10-16T06:38:42;10.25;;;1.70;;
37851;SDS011;23691;52.486;4.650;2022-10-16T06:41:13;10.90;;;1.80;;
37851;SDS011;23691;52.486;4.650;2022-10-16T06:43:43;10.35;;;1.83;;
37851;SDS011;23691;52.486;4.650;2022-10-16T06:46:13;16.05;;;2.20;;
37851;SDS011;23691;52.486;4.650;2022-10-16T06:48:41;14.57;;;1.80;;
37851;SDS011;23691;52.486;4.650;2022-10-16T06:51:08;13.45;;;1.95;;
37851;SDS011;23691;52.486;4.650;2022-10-16T06:53:36;12.30;;;1.85;;
37851;SDS011;23691;52.486;4.650;2022-10-16T06:56:08;14.57;;;2.30;;
37851;SDS011;23691;52.486;4.650;2022-10-16T06:58:38;10.35;;;1.92;;
37851;SDS011;23691;52.486;4.650;2022-10-16T07:01:04;12.77;;;2.00;;
37851;SDS011;23691;52.486;4.650;2022-10-16T07:03:31;15.13;;;2.42;;
37851;SDS011;23691;52.486;4.650;2022-10-16T07:06:00;16.45;;;2.20;;
37851;SDS011;23691;52.486;4.650;2022-10-16T07:08:30;10.60;;;1.90;;
37851;SDS011;23691;52.486;4.650;2022-10-16T07:11:00;16.25;;;2.30;;
37851;SDS011;23691;52.486;4.650;2022-10-16T07:13:27;17.55;;;2.72;;
37851;SDS011;23691;52.486;4.650;2022-10-16T07:15:52;15.77;;;2.38;;
37851;SDS011;23691;52.486;4.650;2022-10-16T07:18:18;16.88;;;2.58;;
37851;SDS011;23691;52.486;4.650;2022-10-16T07:20:44;16.55;;;2.30;;
37851;SDS011;23691;52.486;4.650;2022-10-16T07:23:09;14.55;;;2.17;;
37851;SDS011;23691;52.486;4.650;2022-10-16T07:25:36;20.70;;;2.45;;
37851;SDS011;23691;52.486;4.650;2022-10-16T07:28:01;16.67;;;2.65;;
37851;SDS011;23691;52.486;4.650;2022-10-16T07:30:26;19.67;;;2.55;;
37851;SDS011;23691;52.486;4.650;2022-10-16T07:32:52;24.60;;;2.78;;
37851;SDS011;23691;52.486;4.650;2022-10-16T07:35:17;23.92;;;3.22;;
37851;SDS011;23691;52.486;4.650;2022-10-16T07:37:46;30.00;;;3.70;;
37851;SDS011;23691;52.486;4.650;2022-10-16T07:40:11;28.15;;;3.70;;
37851;SDS011;23691;52.486;4.650;2022-10-16T07:42:37;33.63;;;3.65;;
37851;SDS011;23691;52.486;4.650;2022-10-16T07:45:02;26.70;;;3.60;;
37851;SDS011;23691;52.486;4.650;2022-10-16T07:47:28;28.25;;;3.58;;
37851;SDS011;23691;52.486;4.650;2022-10-16T07:49:53;29.25;;;3.60;;
37851;SDS011;23691;52.486;4.650;2022-10-16T07:52:18;30.00;;;3.95;;
37851;SDS011;23691;52.486;4.650;2022-10-16T07:54:44;27.30;;;3.45;;
37851;SDS011;23691;52.486;4.650;2022-10-16T07:57:09;31.52;;;3.50;;
37851;SDS011;23691;52.486;4.650;2022-10-16T07:59:35;27.88;;;4.07;;
37851;SDS011;23691;52.486;4.650;2022-10-16T08:02:00;26.27;;;3.95;;
37851;SDS011;23691;52.486;4.650;2022-10-16T08:04:25;27.30;;;4.40;;
37851;SDS011;23691;52.486;4.650;2022-10-16T08:06:51;27.85;;;4.57;;
37851;SDS011;23691;52.486;4.650;2022-10-16T08:09:16;24.40;;;4.40;;
37851;SDS011;23691;52.486;4.650;2022-10-16T08:11:42;25.63;;;5.28;;
37851;SDS011;23691;52.486;4.650;2022-10-16T08:14:07;24.63;;;4.13;;
37851;SDS011;23691;52.486;4.650;2022-10-16T08:16:32;22.20;;;3.17;;
37851;SDS011;23691;52.486;4.650;2022-10-16T08:18:58;23.58;;;4.20;;
37851;SDS011;23691;52.486;4.650;2022-10-16T08:21:23;20.98;;;4.05;;
37851;SDS011;23691;52.486;4.650;2022-10-16T08:23:49;22.20;;;3.47;;
37851;SDS011;23691;52.486;4.650;2022-10-16T08:26:15;22.55;;;3.45;;
37851;SDS011;23691;52.486;4.650;2022-10-16T08:28:41;23.58;;;3.70;;
37851;SDS011;23691;52.486;4.650;2022-10-16T08:33:37;26.10;;;4.35;;
37851;SDS011;23691;52.486;4.650;2022-10-16T08:36:04;23.25;;;4.47;;
37851;SDS011;23691;52.486;4.650;2022-10-16T08:38:30;26.58;;;3.60;;
37851;SDS011;23691;52.486;4.650;2022-10-16T08:49:11;24.10;;;4.05;;
37851;SDS011;23691;52.486;4.650;2022-10-16T08:51:39;21.40;;;3.70;;
37851;SDS011;23691;52.486;4.650;2022-10-16T08:57:19;19.98;;;2.78;;
37851;SDS011;23691;52.486;4.650;2022-10-16T08:59:46;21.95;;;3.10;;
37851;SDS011;23691;52.486;4.650;2022-10-16T09:02:22;25.77;;;3.88;;
37851;SDS011;23691;52.486;4.650;2022-10-16T09:05:18;23.42;;;4.32;;
37851;SDS011;23691;52.486;4.650;2022-10-16T09:07:49;23.25;;;4.03;;
37851;SDS011;23691;52.486;4.650;2022-10-16T09:13:27;23.58;;;3.40;;
37851;SDS011;23691;52.486;4.650;2022-10-16T09:18:27;19.58;;;2.72;;
37851;SDS011;23691;52.486;4.650;2022-10-16T09:23:31;23.95;;;3.38;;
37851;SDS011;23691;52.486;4.650;2022-10-16T09:26:01;23.70;;;3.20;;
37851;SDS011;23691;52.486;4.650;2022-10-16T09:28:28;24.50;;;3.33;;
37851;SDS011;23691;52.486;4.650;2022-10-16T09:30:54;19.63;;;3.08;;
37851;SDS011;23691;52.486;4.650;2022-10-16T09:33:20;18.35;;;3.05;;
37851;SDS011;23691;52.486;4.650;2022-10-16T09:35:50;26.85;;;3.80;;
37851;SDS011;23691;52.486;4.650;2022-10-16T09:38:30;19.10;;;3.30;;
37851;SDS011;23691;52.486;4.650;2022-10-16T09:40:59;29.42;;;3.88;;
37851;SDS011;23691;52.486;4.650;2022-10-16T09:43:27;24.17;;;3.90;;
37851;SDS011;23691;52.486;4.650;2022-10-16T09:48:39;18.90;;;2.65;;
37851;SDS011;23691;52.486;4.650;2022-10-16T09:51:19;25.30;;;3.15;;
37851;SDS011;23691;52.486;4.650;2022-10-16T09:53:47;17.75;;;2.65;;
37851;SDS011;23691;52.486;4.650;2022-10-16T09:56:24;15.77;;;2.55;;
37851;SDS011;23691;52.486;4.650;2022-10-16T09:58:55;22.65;;;3.10;;
37851;SDS011;23691;52.486;4.650;2022-10-16T10:03:55;25.33;;;3.88;;
37851;SDS011;23691;52.486;4.650;2022-10-16T10:06:29;24.05;;;3.78;;
37851;SDS011;23691;52.486;4.650;2022-10-16T10:11:50;21.83;;;2.87;;
37851;SDS011;23691;52.486;4.650;2022-10-16T10:14:37;17.35;;;2.08;;
37851;SDS011;23691;52.486;4.650;2022-10-16T10:19:40;22.95;;;2.70;;
37851;SDS011;23691;52.486;4.650;2022-10-16T10:22:25;14.70;;;2.50;;
37851;SDS011;23691;52.486;4.650;2022-10-16T10:24:54;24.00;;;3.33;;
37851;SDS011;23691;52.486;4.650;2022-10-16T10:27:29;24.52;;;2.75;;
37851;SDS011;23691;52.486;4.650;2022-10-16T10:30:09;20.33;;;2.83;;
37851;SDS011;23691;52.486;4.650;2022-10-16T10:33:18;20.25;;;3.03;;
37851;SDS011;23691;52.486;4.650;2022-10-16T10:35:58;19.05;;;2.75;;
37851;SDS011;23691;52.486;4.650;2022-10-16T10:38:50;18.60;;;2.72;;
37851;SDS011;23691;52.486;4.650;2022-10-16T10:49:47;21.75;;;3.67;;
37851;SDS011;23691;52.486;4.650;2022-10-16T10:55:15;20.42;;;2.97;;
37851;SDS011;23691;52.486;4.650;2022-10-16T11:00:25;16.05;;;2.70;;
37851;SDS011;23691;52.486;4.650;2022-10-16T11:08:13;26.38;;;3.45;;
37851;SDS011;23691;52.486;4.650;2022-10-16T11:10:53;25.70;;;2.90;;
37851;SDS011;23691;52.486;4.650;2022-10-16T11:16:29;19.67;;;2.65;;
37851;SDS011;23691;52.486;4.650;2022-10-16T11:19:12;16.13;;;2.50;;
37851;SDS011;23691;52.486;4.650;2022-10-16T11:24:41;18.63;;;2.80;;
37851;SDS011;23691;52.486;4.650;2022-10-16T11:27:14;17.75;;;3.10;;
37851;SDS011;23691;52.486;4.650;2022-10-16T11:29:50;16.27;;;2.63;;
37851;SDS011;23691;52.486;4.650;2022-10-16T11:32:22;16.10;;;2.80;;
37851;SDS011;23691;52.486;4.650;2022-10-16T11:34:52;19.45;;;2.90;;
37851;SDS011;23691;52.486;4.650;2022-10-16T11:37:24;19.25;;;2.67;;
37851;SDS011;23691;52.486;4.650;2022-10-16T11:40:02;17.48;;;2.78;;
37851;SDS011;23691;52.486;4.650;2022-10-16T11:42:44;24.45;;;2.80;;
37851;SDS011;23691;52.486;4.650;2022-10-16T11:46:03;22.48;;;2.92;;
37851;SDS011;23691;52.486;4.650;2022-10-16T11:48:24;19.15;;;2.78;;
37851;SDS011;23691;52.486;4.650;2022-10-16T11:50:57;17.25;;;2.97;;
37851;SDS011;23691;52.486;4.650;2022-10-16T11:56:16;19.60;;;3.20;;
37851;SDS011;23691;52.486;4.650;2022-10-16T12:09:25;20.17;;;3.83;;
37851;SDS011;23691;52.486;4.650;2022-10-16T12:11:52;20.30;;;2.80;;
37851;SDS011;23691;52.486;4.650;2022-10-16T12:14:21;26.42;;;4.35;;
37851;SDS011;23691;52.486;4.650;2022-10-16T12:19:58;21.15;;;3.05;;
37851;SDS011;23691;52.486;4.650;2022-10-16T12:25:28;20.30;;;3.22;;
37851;SDS011;23691;52.486;4.650;2022-10-16T12:27:57;13.15;;;2.10;;
37851;SDS011;23691;52.486;4.650;2022-10-16T12:30:25;16.30;;;3.38;;
37851;SDS011;23691;52.486;4.650;2022-10-16T12:32:53;18.38;;;2.95;;
37851;SDS011;23691;52.486;4.650;2022-10-16T12:35:21;17.77;;;2.72;;
37851;SDS011;23691;52.486;4.650;2022-10-16T12:37:48;13.55;;;2.33;;
37851;SDS011;23691;52.486;4.650;2022-10-16T12:40:36;17.23;;;2.53;;
37851;SDS011;23691;52.486;4.650;2022-10-16T12:44:02;15.05;;;2.17;;
37851;SDS011;23691;52.486;4.650;2022-10-16T12:48:36;19.35;;;2.70;;
37851;SDS011;23691;52.486;4.650;2022-10-16T12:51:10;15.98;;;2.55;;
37851;SDS011;23691;52.486;4.650;2022-10-16T12:59:21;14.00;;;2.05;;
37851;SDS011;23691;52.486;4.650;2022-10-16T13:02:39;12.95;;;2.08;;
37851;SDS011;23691;52.486;4.650;2022-10-16T13:10:41;19.10;;;2.05;;
37851;SDS011;23691;52.486;4.650;2022-10-16T13:24:49;14.70;;;1.83;;
37851;SDS011;23691;52.486;4.650;2022-10-16T13:30:21;13.55;;;2.50;;
37851;SDS011;23691;52.486;4.650;2022-10-16T13:32:50;14.02;;;1.90;;
37851;SDS011;23691;52.486;4.650;2022-10-16T13:35:33;16.35;;;2.50;;
37851;SDS011;23691;52.486;4.650;2022-10-16T13:38:06;17.75;;;2.72;;
37851;SDS011;23691;52.486;4.650;2022-10-16T13:40:36;12.93;;;2.22;;
37851;SDS011;23691;52.486;4.650;2022-10-16T13:43:01;14.32;;;2.20;;
37851;SDS011;23691;52.486;4.650;2022-10-16T13:45:27;17.27;;;2.20;;
37851;SDS011;23691;52.486;4.650;2022-10-16T13:48:02;14.35;;;2.15;;
37851;SDS011;23691;52.486;4.650;2022-10-16T13:53:03;13.55;;;1.85;;
37851;SDS011;23691;52.486;4.650;2022-10-16T13:55:29;18.80;;;2.45;;
37851;SDS011;23691;52.486;4.650;2022-10-16T13:58:04;11.30;;;1.95;;
37851;SDS011;23691;52.486;4.650;2022-10-16T14:03:04;13.60;;;2.10;;
37851;SDS011;23691;52.486;4.650;2022-10-16T14:05:32;19.33;;;2.38;;
37851;SDS011;23691;52.486;4.650;2022-10-16T14:07:58;13.75;;;1.95;;
37851;SDS011;23691;52.486;4.650;2022-10-16T14:10:25;16.75;;;2.28;;
37851;SDS011;23691;52.486;4.650;2022-10-16T14:13:02;12.85;;;2.10;;
37851;SDS011;23691;52.486;4.650;2022-10-16T14:15:33;17.77;;;2.08;;
37851;SDS011;23691;52.486;4.650;2022-10-16T14:18:00;14.80;;;2.10;;
37851;SDS011;23691;52.486;4.650;2022-10-16T14:20:27;18.90;;;2.67;;
37851;SDS011;23691;52.486;4.650;2022-10-16T14:23:03;16.40;;;2.08;;
37851;SDS011;23691;52.486;4.650;2022-10-16T14:25:43;14.98;;;2.70;;
37851;SDS011;23691;52.486;4.650;2022-10-16T14:30:48;15.63;;;2.38;;
37851;SDS011;23691;52.486;4.650;2022-10-16T14:33:25;20.40;;;2.50;;
37851;SDS011;23691;52.486;4.650;2022-10-16T14:38:36;13.45;;;2.03;;
37851;SDS011;23691;52.486;4.650;2022-10-16T14:41:04;15.60;;;2.42;;
37851;SDS011;23691;52.486;4.650;2022-10-16T14:43:36;18.08;;;2.38;;
37851;SDS011;23691;52.486;4.650;2022-10-16T14:46:06;12.57;;;2.47;;
37851;SDS011;23691;52.486;4.650;2022-10-16T14:48:46;13.43;;;1.90;;
37851;SDS011;23691;52.486;4.650;2022-10-16T14:51:16;16.10;;;2.33;;
37851;SDS011;23691;52.486;4.650;2022-10-16T14:53:42;13.40;;;2.17;;
37851;SDS011;23691;52.486;4.650;2022-10-16T14:56:08;15.38;;;2.22;;
37851;SDS011;23691;52.486;4.650;2022-10-16T14:58:41;17.27;;;2.33;;
37851;SDS011;23691;52.486;4.650;2022-10-16T15:01:07;14.68;;;2.15;;
37851;SDS011;23691;52.486;4.650;2022-10-16T15:03:36;17.88;;;2.30;;
37851;SDS011;23691;52.486;4.650;2022-10-16T15:06:01;16.63;;;2.65;;
37851;SDS011;23691;52.486;4.650;2022-10-16T15:08:26;13.85;;;2.08;;
37851;SDS011;23691;52.486;4.650;2022-10-16T15:10:52;17.17;;;2.50;;
37851;SDS011;23691;52.486;4.650;2022-10-16T15:13:17;17.63;;;2.22;;
37851;SDS011;23691;52.486;4.650;2022-10-16T15:15:44;19.15;;;2.47;;
37851;SDS011;23691;52.486;4.650;2022-10-16T15:18:10;14.90;;;2.30;;
37851;SDS011;23691;52.486;4.650;2022-10-16T15:20:40;22.95;;;2.70;;
37851;SDS011;23691;52.486;4.650;2022-10-16T15:23:13;17.02;;;2.38;;
37851;SDS011;23691;52.486;4.650;2022-10-16T15:25:49;20.48;;;2.78;;
37851;SDS011;23691;52.486;4.650;2022-10-16T15:28:16;14.15;;;2.17;;
37851;SDS011;23691;52.486;4.650;2022-10-16T15:30:43;14.05;;;2.70;;
37851;SDS011;23691;52.486;4.650;2022-10-16T15:33:19;15.50;;;2.40;;
37851;SDS011;23691;52.486;4.650;2022-10-16T15:35:48;12.23;;;2.00;;
37851;SDS011;23691;52.486;4.650;2022-10-16T15:38:15;18.42;;;2.55;;
37851;SDS011;23691;52.486;4.650;2022-10-16T15:40:41;14.60;;;2.17;;
37851;SDS011;23691;52.486;4.650;2022-10-16T15:43:07;14.65;;;2.03;;
37851;SDS011;23691;52.486;4.650;2022-10-16T15:45:33;19.65;;;2.25;;
37851;SDS011;23691;52.486;4.650;2022-10-16T15:47:59;15.35;;;2.80;;
37851;SDS011;23691;52.486;4.650;2022-10-16T15:50:24;15.63;;;2.35;;
37851;SDS011;23691;52.486;4.650;2022-10-16T15:52:50;19.17;;;2.25;;
37851;SDS011;23691;52.486;4.650;2022-10-16T15:55:16;13.65;;;2.40;;
37851;SDS011;23691;52.486;4.650;2022-10-16T15:57:43;20.98;;;2.33;;
37851;SDS011;23691;52.486;4.650;2022-10-16T16:00:11;13.90;;;2.78;;
37851;SDS011;23691;52.486;4.650;2022-10-16T16:02:40;15.93;;;2.65;;
37851;SDS011;23691;52.486;4.650;2022-10-16T16:05:07;14.32;;;2.92;;
37851;SDS011;23691;52.486;4.650;2022-10-16T16:07:33;16.13;;;2.80;;
37851;SDS011;23691;52.486;4.650;2022-10-16T16:10:00;24.92;;;3.30;;
37851;SDS011;23691;52.486;4.650;2022-10-16T16:12:26;16.27;;;3.05;;
37851;SDS011;23691;52.486;4.650;2022-10-16T16:14:51;15.32;;;3.45;;
37851;SDS011;23691;52.486;4.650;2022-10-16T16:17:17;16.80;;;2.55;;
37851;SDS011;23691;52.486;4.650;2022-10-16T16:19:43;16.65;;;3.05;;
37851;SDS011;23691;52.486;4.650;2022-10-16T16:22:08;16.30;;;2.90;;
37851;SDS011;23691;52.486;4.650;2022-10-16T16:24:33;18.10;;;3.33;;
37851;SDS011;23691;52.486;4.650;2022-10-16T16:26:59;15.95;;;3.00;;
37851;SDS011;23691;52.486;4.650;2022-10-16T16:29:24;14.07;;;2.60;;
37851;SDS011;23691;52.486;4.650;2022-10-16T16:31:50;15.70;;;2.90;;
37851;SDS011;23691;52.486;4.650;2022-10-16T16:34:22;21.73;;;3.15;;
37851;SDS011;23691;52.486;4.650;2022-10-16T16:36:51;18.80;;;3.50;;
37851;SDS011;23691;52.486;4.650;2022-10-16T16:39:17;20.67;;;3.63;;
37851;SDS011;23691;52.486;4.650;2022-10-16T16:41:42;17.95;;;3.45;;
37851;SDS011;23691;52.486;4.650;2022-10-16T16:44:09;19.05;;;3.67;;
37851;SDS011;23691;52.486;4.650;2022-10-16T16:46:35;17.02;;;3.42;;
37851;SDS011;23691;52.486;4.650;2022-10-16T16:49:02;22.10;;;4.63;;
37851;SDS011;23691;52.486;4.650;2022-10-16T16:51:27;19.98;;;4.75;;
37851;SDS011;23691;52.486;4.650;2022-10-16T16:53:53;22.55;;;4.47;;
37851;SDS011;23691;52.486;4.650;2022-10-16T16:56:20;21.95;;;4.30;;
37851;SDS011;23691;52.486;4.650;2022-10-16T16:58:48;20.33;;;4.25;;
37851;SDS011;23691;52.486;4.650;2022-10-16T17:01:15;19.58;;;3.85;;
37851;SDS011;23691;52.486;4.650;2022-10-16T17:03:41;16.13;;;3.47;;
37851;SDS011;23691;52.486;4.650;2022-10-16T17:06:12;16.70;;;3.10;;
37851;SDS011;23691;52.486;4.650;2022-10-16T17:08:39;20.05;;;3.75;;
37851;SDS011;23691;52.486;4.650;2022-10-16T17:11:05;19.75;;;4.28;;
37851;SDS011;23691;52.486;4.650;2022-10-16T17:13:36;22.40;;;5.05;;
37851;SDS011;23691;52.486;4.650;2022-10-16T17:16:02;20.77;;;4.85;;
37851;SDS011;23691;52.486;4.650;2022-10-16T17:18:29;18.65;;;4.88;;
37851;SDS011;23691;52.486;4.650;2022-10-16T17:20:54;21.10;;;4.63;;
37851;SDS011;23691;52.486;4.650;2022-10-16T17:23:24;20.25;;;4.35;;
37851;SDS011;23691;52.486;4.650;2022-10-16T17:25:50;18.95;;;4.07;;
37851;SDS011;23691;52.486;4.650;2022-10-16T17:28:15;15.90;;;4.00;;
37851;SDS011;23691;52.486;4.650;2022-10-16T17:30:41;24.00;;;4.15;;
37851;SDS011;23691;52.486;4.650;2022-10-16T17:33:08;18.60;;;4.35;;
37851;SDS011;23691;52.486;4.650;2022-10-16T17:35:45;16.40;;;4.35;;
37851;SDS011;23691;52.486;4.650;2022-10-16T17:38:13;16.83;;;4.63;;
37851;SDS011;23691;52.486;4.650;2022-10-16T17:40:40;15.87;;;4.93;;
37851;SDS011;23691;52.486;4.650;2022-10-16T17:43:06;22.35;;;4.72;;
37851;SDS011;23691;52.486;4.650;2022-10-16T17:45:35;21.00;;;5.10;;
37851;SDS011;23691;52.486;4.650;2022-10-16T17:48:01;22.45;;;4.70;;
37851;SDS011;23691;52.486;4.650;2022-10-16T17:50:27;16.95;;;4.78;;
37851;SDS011;23691;52.486;4.650;2022-10-16T17:52:52;16.20;;;4.80;;
37851;SDS011;23691;52.486;4.650;2022-10-16T17:55:18;15.75;;;4.45;;
37851;SDS011;23691;52.486;4.650;2022-10-16T17:57:44;16.77;;;4.70;;
37851;SDS011;23691;52.486;4.650;2022-10-16T18:00:09;18.67;;;4.70;;
37851;SDS011;23691;52.486;4.650;2022-10-16T18:02:35;18.60;;;5.65;;
37851;SDS011;23691;52.486;4.650;2022-10-16T18:05:01;21.33;;;5.47;;
37851;SDS011;23691;52.486;4.650;2022-10-16T18:07:28;22.10;;;5.50;;
37851;SDS011;23691;52.486;4.650;2022-10-16T18:09:54;17.63;;;5.28;;
37851;SDS011;23691;52.486;4.650;2022-10-16T18:12:19;19.55;;;5.30;;
37851;SDS011;23691;52.486;4.650;2022-10-16T18:14:44;21.13;;;5.10;;
37851;SDS011;23691;52.486;4.650;2022-10-16T18:17:10;18.90;;;4.95;;
37851;SDS011;23691;52.486;4.650;2022-10-16T18:19:35;17.48;;;4.57;;
37851;SDS011;23691;52.486;4.650;2022-10-16T18:22:00;20.42;;;3.95;;
37851;SDS011;23691;52.486;4.650;2022-10-16T18:24:26;18.05;;;4.50;;
37851;SDS011;23691;52.486;4.650;2022-10-16T18:26:52;20.98;;;5.03;;
37851;SDS011;23691;52.486;4.650;2022-10-16T18:29:26;21.95;;;4.75;;
37851;SDS011;23691;52.486;4.650;2022-10-16T18:31:52;17.02;;;4.63;;
37851;SDS011;23691;52.486;4.650;2022-10-16T19:07:06;51.53;;;23.67;;
37851;SDS011;23691;52.486;4.650;2022-10-16T19:09:32;44.53;;;19.77;;
37851;SDS011;23691;52.486;4.650;2022-10-16T19:11:57;28.98;;;12.45;;
37851;SDS011;23691;52.486;4.650;2022-10-16T19:14:23;23.83;;;10.70;;
37851;SDS011;23691;52.486;4.650;2022-10-16T19:16:49;31.40;;;11.30;;
37851;SDS011;23691;52.486;4.650;2022-10-16T19:19:15;24.35;;;8.73;;
37851;SDS011;23691;52.486;4.650;2022-10-16T19:21:42;27.10;;;8.27;;
37851;SDS011;23691;52.486;4.650;2022-10-16T19:24:10;18.90;;;5.70;;
37851;SDS011;23691;52.486;4.650;2022-10-16T19:26:37;18.75;;;5.35;;
37851;SDS011;23691;52.486;4.650;2022-10-16T19:29:04;21.25;;;4.97;;
37851;SDS011;23691;52.486;4.650;2022-10-16T19:31:31;15.05;;;4.18;;
37851;SDS011;23691;52.486;4.650;2022-10-16T19:33:58;22.25;;;4.70;;
37851;SDS011;23691;52.486;4.650;2022-10-16T19:36:25;16.40;;;3.90;;
37851;SDS011;23691;52.486;4.650;2022-10-16T19:39:00;18.85;;;4.05;;
37851;SDS011;23691;52.486;4.650;2022-10-16T19:41:27;17.10;;;3.95;;
37851;SDS011;23691;52.486;4.650;2022-10-16T19:43:53;20.42;;;3.80;;
37851;SDS011;23691;52.486;4.650;2022-10-16T19:46:23;21.90;;;3.97;;
37851;SDS011;23691;52.486;4.650;2022-10-16T19:48:56;18.55;;;4.00;;
37851;SDS011;23691;52.486;4.650;2022-10-16T19:51:23;20.05;;;3.90;;
37851;SDS011;23691;52.486;4.650;2022-10-16T19:53:52;17.33;;;3.55;;